createdAt,value
2018-02-16T00:01:02.764Z,131.33
2018-02-16T00:03:30.250Z,123.40
2018-02-16T00:05:57.718Z,99.33
2018-02-16T00:08:25.204Z,105.13
2018-02-16T00:10:53.446Z,85.00
2018-02-16T00:13:20.938Z,106.40
2018-02-16T00:15:49.167Z,121.13
2018-02-16T00:18:16.644Z,131.57
2018-02-16T00:20:44.142Z,113.67
2018-02-16T00:23:11.643Z,119.93
2018-02-16T00:25:39.121Z,121.97
2018-02-16T00:28:06.603Z,143.17
2018-02-16T00:30:34.098Z,127.90
2018-02-16T00:33:01.614Z,138.00
2018-02-16T00:35:29.094Z,128.70
2018-02-16T00:37:57.334Z,113.87
2018-02-16T00:40:24.820Z,117.77
2018-02-16T00:42:53.066Z,91.57
2018-02-16T00:45:20.542Z,118.37
2018-02-16T00:47:48.013Z,106.70
2018-02-16T00:50:15.559Z,100.53
2018-02-16T00:52:43.041Z,101.17
2018-02-16T00:55:11.278Z,99.77
2018-02-16T00:57:38.776Z,110.27
2018-02-16T01:00:07.018Z,120.10
2018-02-16T01:02:34.558Z,98.60
2018-02-16T01:05:02.051Z,99.00
2018-02-16T01:07:29.535Z,108.57
2018-02-16T01:09:57.775Z,87.20
2018-02-16T01:12:26.018Z,105.00
2018-02-16T01:14:53.497Z,76.63
2018-02-16T01:17:20.978Z,85.67
2018-02-16T01:19:48.467Z,118.17
2018-02-16T01:22:15.946Z,91.60
2018-02-16T01:24:43.442Z,103.07
2018-02-16T01:27:10.952Z,104.97
2018-02-16T01:29:38.423Z,117.53
2018-02-16T01:32:05.923Z,103.00
2018-02-16T01:34:33.394Z,97.77
2018-02-16T01:37:00.894Z,120.40
2018-02-16T01:39:28.390Z,100.73
2018-02-16T01:41:55.861Z,118.60
2018-02-16T01:44:23.346Z,95.00
2018-02-16T01:46:50.839Z,86.70
2018-02-16T01:49:18.348Z,87.20
2018-02-16T01:51:45.822Z,94.07
2018-02-16T01:54:14.085Z,86.57
2018-02-16T01:56:42.353Z,81.87
2018-02-16T01:59:09.861Z,92.10
2018-02-16T02:01:37.339Z,84.53
2018-02-16T02:04:04.837Z,80.83
2018-02-16T02:06:32.301Z,95.40
2018-02-16T02:09:00.568Z,87.93
2018-02-16T02:11:28.038Z,93.73
2018-02-16T02:13:56.354Z,96.60
2018-02-16T02:16:23.866Z,113.80
2018-02-16T02:18:51.335Z,101.50
2018-02-16T02:21:19.584Z,95.97
2018-02-16T02:23:47.051Z,96.43
2018-02-16T02:26:14.556Z,112.50
2018-02-16T02:28:42.036Z,122.33
2018-02-16T02:31:09.516Z,99.97
2018-02-16T02:33:37.018Z,113.37
2018-02-16T02:36:04.505Z,120.87
2018-02-16T02:38:31.990Z,117.00
2018-02-16T02:40:59.490Z,111.13
2018-02-16T02:43:27.729Z,107.83
2018-02-16T02:45:55.217Z,134.23
2018-02-16T02:48:23.453Z,123.03
2018-02-16T02:50:50.948Z,136.30
2018-02-16T02:53:19.190Z,124.47
2018-02-16T02:55:48.196Z,111.73
2018-02-16T02:58:15.687Z,91.47
2018-02-16T03:00:43.918Z,128.77
2018-02-16T03:03:11.392Z,94.70
2018-02-16T03:05:38.878Z,128.37
2018-02-16T03:08:07.129Z,84.80
2018-02-16T03:10:34.589Z,98.90
2018-02-16T03:13:02.070Z,93.70
2018-02-16T03:15:30.382Z,93.27
2018-02-16T03:17:57.878Z,93.13
2018-02-16T03:20:25.337Z,107.37
2018-02-16T03:22:52.842Z,119.07
2018-02-16T03:25:20.292Z,140.43
2018-02-16T03:27:47.779Z,103.70
2018-02-16T03:30:15.280Z,129.20
2018-02-16T03:32:43.535Z,140.17
2018-02-16T03:35:10.989Z,132.10
2018-02-16T03:37:38.470Z,113.03
2018-02-16T03:40:05.937Z,137.47
2018-02-16T03:42:34.184Z,101.50
2018-02-16T03:45:01.647Z,116.80
2018-02-16T03:47:29.127Z,138.30
2018-02-16T03:49:57.389Z,129.37
2018-02-16T03:52:25.614Z,127.50
2018-02-16T03:54:53.110Z,144.73
2018-02-16T03:57:20.574Z,139.77
2018-02-16T03:59:48.066Z,145.67
2018-02-16T04:02:16.296Z,140.67
2018-02-16T04:04:43.765Z,130.33
2018-02-16T04:07:11.229Z,119.30
2018-02-16T04:09:38.703Z,145.97
2018-02-16T04:12:06.165Z,145.40
2018-02-16T04:14:34.413Z,155.77
2018-02-16T04:17:01.886Z,133.63
2018-02-16T04:19:29.354Z,120.33
2018-02-16T04:21:56.885Z,131.30
2018-02-16T04:24:24.355Z,114.47
2018-02-16T04:26:51.825Z,112.33
2018-02-16T04:29:19.293Z,114.10
2018-02-16T04:31:46.769Z,101.40
2018-02-16T04:34:14.261Z,114.10
2018-02-16T04:36:41.741Z,130.07
2018-02-16T04:39:09.214Z,118.93
2018-02-16T04:41:36.678Z,115.40
2018-02-16T04:44:04.142Z,97.07
2018-02-16T04:46:32.397Z,101.10
2018-02-16T04:48:59.873Z,96.97
2018-02-16T04:51:27.329Z,88.40
2018-02-16T04:53:54.811Z,89.77
2018-02-16T04:56:23.062Z,102.93
2018-02-16T04:58:50.543Z,89.03
2018-02-16T05:01:18.766Z,92.13
2018-02-16T05:03:46.237Z,73.80
2018-02-16T05:06:13.790Z,77.00
2018-02-16T05:08:41.300Z,117.63
2018-02-16T05:11:09.542Z,130.80
2018-02-16T05:13:37.004Z,106.47
2018-02-16T05:16:04.501Z,94.60
2018-02-16T05:18:31.958Z,61.97
2018-02-16T05:20:59.426Z,98.00
2018-02-16T05:23:26.897Z,113.27
2018-02-16T05:25:54.396Z,68.33
2018-02-16T05:28:22.630Z,73.20
2018-02-16T05:30:50.115Z,100.13
2018-02-16T05:33:17.575Z,101.17
2018-02-16T05:35:45.071Z,90.53
2018-02-16T05:38:13.314Z,91.93
2018-02-16T05:40:40.788Z,88.30
2018-02-16T05:43:08.249Z,74.43
2018-02-16T05:45:35.781Z,97.53
2018-02-16T05:48:03.250Z,87.03
2018-02-16T05:50:30.731Z,96.97
2018-02-16T05:52:58.212Z,106.83
2018-02-16T05:55:26.455Z,91.70
2018-02-16T05:57:53.917Z,77.10
2018-02-16T06:00:22.165Z,77.40
2018-02-16T06:02:49.644Z,77.73
2018-02-16T06:05:17.109Z,80.00
2018-02-16T06:07:44.573Z,81.77
2018-02-16T06:10:12.821Z,76.50
2018-02-16T06:12:40.294Z,76.77
2018-02-16T06:15:07.782Z,95.97
2018-02-16T06:17:35.407Z,62.30
2018-02-16T06:20:02.866Z,70.40
2018-02-16T06:22:30.354Z,84.60
2018-02-16T06:24:58.669Z,82.63
2018-02-16T06:27:26.153Z,80.47
2018-02-16T06:29:53.637Z,102.67
2018-02-16T06:32:21.123Z,71.10
2018-02-16T06:34:48.585Z,89.20
2018-02-16T06:37:16.058Z,83.60
2018-02-16T06:39:43.537Z,56.00
2018-02-16T06:42:11.134Z,89.47
2018-02-16T06:44:39.382Z,73.17
2018-02-16T06:47:06.849Z,70.77
2018-02-16T06:49:34.343Z,73.03
2018-02-16T06:52:02.569Z,58.17
2018-02-16T06:54:30.034Z,93.07
2018-02-16T06:56:57.507Z,70.27
2018-02-16T06:59:24.985Z,75.10
2018-02-16T07:01:53.228Z,69.70
2018-02-16T07:04:20.710Z,70.10
2018-02-16T07:06:48.182Z,67.70
2018-02-16T07:09:16.407Z,58.93
2018-02-16T07:11:43.886Z,57.50
2018-02-16T07:14:11.365Z,54.20
2018-02-16T07:16:38.833Z,67.77
2018-02-16T07:19:06.303Z,61.40
2018-02-16T07:21:35.578Z,54.30
2018-02-16T07:24:03.039Z,41.53
2018-02-16T07:26:31.295Z,64.50
2018-02-16T07:28:58.774Z,40.23
2018-02-16T07:31:26.258Z,43.27
2018-02-16T07:33:53.765Z,44.13
2018-02-16T07:36:21.255Z,45.10
2018-02-16T07:38:48.751Z,51.20
2018-02-16T07:41:16.229Z,38.80
2018-02-16T07:43:43.717Z,44.60
2018-02-16T07:46:11.178Z,34.80
2018-02-16T07:48:38.676Z,36.07
2018-02-16T07:51:06.149Z,39.80
2018-02-16T07:53:33.615Z,44.10
2018-02-16T07:56:01.144Z,44.50
2018-02-16T07:58:28.642Z,38.53
2018-02-16T08:00:56.870Z,35.37
2018-02-16T08:03:25.121Z,42.37
2018-02-16T08:05:52.573Z,32.73
2018-02-16T08:08:20.062Z,42.70
2018-02-16T08:10:48.298Z,28.10
2018-02-16T08:13:15.785Z,26.53
2018-02-16T08:15:43.244Z,40.13
2018-02-16T08:18:11.493Z,30.63
2018-02-16T08:20:38.966Z,27.97
2018-02-16T08:23:06.632Z,27.87
2018-02-16T08:25:34.111Z,23.40
2018-02-16T08:28:02.342Z,27.93
2018-02-16T08:30:29.933Z,27.57
2018-02-16T08:32:58.186Z,12.80
2018-02-16T08:35:25.679Z,12.10
2018-02-16T08:37:53.914Z,18.23
2018-02-16T08:40:21.389Z,18.23
2018-02-16T08:42:48.876Z,19.90
2018-02-16T08:45:17.119Z,20.80
2018-02-16T08:47:44.575Z,15.27
2018-02-16T08:50:12.078Z,18.17
2018-02-16T08:52:39.654Z,22.80
2018-02-16T08:55:07.226Z,18.17
2018-02-16T08:57:34.879Z,19.60
2018-02-16T09:00:02.458Z,21.97
2018-02-16T09:02:29.924Z,18.73
2018-02-16T09:04:57.390Z,29.57
2018-02-16T09:07:24.997Z,19.73
2018-02-16T09:09:53.326Z,19.20
2018-02-16T09:12:20.812Z,22.40
2018-02-16T09:14:48.482Z,16.50
2018-02-16T09:17:16.136Z,22.93
2018-02-16T09:19:43.670Z,20.97
2018-02-16T09:22:11.146Z,19.57
2018-02-16T09:24:38.690Z,22.13
2018-02-16T09:27:06.166Z,12.80
2018-02-16T09:29:33.661Z,20.20
2018-02-16T09:32:01.184Z,17.87
2018-02-16T09:34:28.686Z,20.97
2018-02-16T09:36:57.152Z,11.20
2018-02-16T09:39:26.999Z,19.53
2018-02-16T09:41:54.526Z,20.43
2018-02-16T09:44:22.986Z,19.03
2018-02-16T09:46:50.832Z,12.33
2018-02-16T09:49:18.423Z,12.07
2018-02-16T09:51:46.189Z,12.80
2018-02-16T09:54:13.765Z,17.90
2018-02-16T09:56:41.256Z,18.03
2018-02-16T09:59:08.739Z,15.50
2018-02-16T10:01:36.211Z,24.37
2018-02-16T10:04:03.772Z,26.53
2018-02-16T10:06:31.274Z,21.80
2018-02-16T10:08:58.777Z,15.93
2018-02-16T10:11:26.267Z,25.13
2018-02-16T10:13:54.528Z,28.53
2018-02-16T10:16:22.037Z,19.40
2018-02-16T10:18:49.568Z,14.87
2018-02-16T10:21:17.790Z,18.03
2018-02-16T10:23:45.688Z,24.13
2018-02-16T10:26:13.348Z,20.07
2018-02-16T10:28:40.840Z,13.13
2018-02-16T10:31:08.317Z,14.77
2018-02-16T10:33:35.798Z,23.53
2018-02-16T10:36:03.262Z,14.60
2018-02-16T10:38:30.900Z,20.33
2018-02-16T10:40:58.382Z,17.43
2018-02-16T10:43:26.837Z,16.63
2018-02-16T10:45:54.323Z,14.87
2018-02-16T10:48:21.791Z,12.80
2018-02-16T10:50:49.268Z,25.00
2018-02-16T10:53:16.779Z,17.57
2018-02-16T10:55:44.242Z,11.00
2018-02-16T10:58:11.745Z,16.97
2018-02-16T11:00:45.006Z,6.73
2018-02-16T11:03:18.061Z,18.80
2018-02-16T11:05:51.369Z,22.33
2018-02-16T11:08:24.465Z,16.23
2018-02-16T11:10:51.936Z,14.87
2018-02-16T11:13:19.532Z,13.63
2018-02-16T11:15:47.637Z,17.37
2018-02-16T11:18:15.164Z,13.13
2018-02-16T11:20:42.634Z,13.87
2018-02-16T11:23:10.113Z,12.80
2018-02-16T11:25:38.432Z,7.83
2018-02-16T11:28:05.913Z,19.07
2018-02-16T11:30:33.379Z,8.17
2018-02-16T11:33:00.866Z,7.50
2018-02-16T11:35:28.330Z,11.60
2018-02-16T11:37:55.919Z,13.17
2018-02-16T11:40:23.505Z,14.60
2018-02-16T11:42:51.858Z,9.37
2018-02-16T11:45:19.425Z,11.73
2018-02-16T11:47:47.098Z,14.67
2018-02-16T11:50:14.561Z,13.10
2018-02-16T11:52:42.235Z,6.83
2018-02-16T11:55:09.727Z,8.80
2018-02-16T11:57:37.949Z,9.33
2018-02-16T12:00:05.695Z,14.33
2018-02-16T12:02:33.216Z,13.53
2018-02-16T12:05:01.713Z,8.83
2018-02-16T12:07:30.136Z,6.67
2018-02-16T12:09:57.743Z,13.20
2018-02-16T12:12:26.084Z,15.07
2018-02-16T12:14:53.838Z,10.70
2018-02-16T12:17:21.360Z,7.57
2018-02-16T12:19:48.835Z,15.63
2018-02-16T12:22:16.327Z,10.90
2018-02-16T12:24:43.925Z,7.67
2018-02-16T12:27:12.325Z,9.33
2018-02-16T12:29:40.109Z,9.83
2018-02-16T12:32:07.593Z,15.33
2018-02-16T12:34:35.157Z,18.20
2018-02-16T12:37:02.630Z,6.83
2018-02-16T12:39:30.100Z,17.47
2018-02-16T12:41:58.341Z,13.80
2018-02-16T12:44:25.795Z,9.13
2018-02-16T12:46:53.286Z,14.30
2018-02-16T12:49:20.748Z,8.33
2018-02-16T12:51:48.282Z,11.67
2018-02-16T12:54:15.731Z,3.50
2018-02-16T12:56:43.206Z,13.40
2018-02-16T12:59:10.669Z,6.30
2018-02-16T13:01:38.139Z,9.50
2018-02-16T13:04:05.597Z,7.67
2018-02-16T13:06:33.068Z,8.10
2018-02-16T13:09:00.531Z,6.97
2018-02-16T13:11:28.755Z,13.67
2018-02-16T13:13:56.235Z,18.33
2018-02-16T13:16:23.721Z,15.13
2018-02-16T13:18:51.956Z,14.93
2018-02-16T13:21:19.420Z,6.23
2018-02-16T13:23:46.877Z,5.67
2018-02-16T13:26:14.350Z,6.97
2018-02-16T13:28:41.820Z,7.80
2018-02-16T13:31:09.315Z,6.77
2018-02-16T13:33:37.506Z,4.03
2018-02-16T13:36:04.984Z,12.50
2018-02-16T13:38:32.589Z,6.73
2018-02-16T13:41:00.816Z,18.03
2018-02-16T13:43:28.285Z,4.20
2018-02-16T13:45:55.762Z,11.53
2018-02-16T13:48:24.772Z,8.03
2018-02-16T13:50:52.257Z,14.20
2018-02-16T13:53:19.709Z,8.07
2018-02-16T13:55:47.192Z,9.53
2018-02-16T13:58:14.649Z,16.63
2018-02-16T14:00:42.116Z,6.27
2018-02-16T14:03:10.299Z,6.27
2018-02-16T14:05:37.770Z,7.60
2018-02-16T14:08:05.233Z,12.30
2018-02-16T14:10:32.705Z,8.17
2018-02-16T14:13:00.950Z,12.60
2018-02-16T14:15:28.425Z,8.13
2018-02-16T14:17:55.886Z,9.37
2018-02-16T14:20:23.340Z,4.80
2018-02-16T14:22:50.802Z,7.37
2018-02-16T14:25:18.294Z,10.33
2018-02-16T14:27:46.534Z,13.73
2018-02-16T14:30:14.003Z,14.13
2018-02-16T14:32:41.470Z,11.80
2018-02-16T14:35:09.717Z,6.30
2018-02-16T14:37:37.252Z,8.63
2018-02-16T14:40:04.712Z,7.83
2018-02-16T14:42:32.205Z,9.00
2018-02-16T14:44:59.668Z,10.20
2018-02-16T14:47:27.152Z,7.30
2018-02-16T14:49:55.408Z,4.50
2018-02-16T14:52:22.888Z,5.70
2018-02-16T14:54:51.118Z,7.83
2018-02-16T14:57:19.339Z,7.93
2018-02-16T14:59:47.575Z,9.03
2018-02-16T15:02:15.035Z,9.43
2018-02-16T15:04:42.544Z,10.83
2018-02-16T15:07:10.769Z,14.33
2018-02-16T15:09:38.279Z,12.13
2018-02-16T15:12:05.743Z,8.37
2018-02-16T15:14:33.235Z,15.77
2018-02-16T15:17:00.702Z,15.20
2018-02-16T15:19:28.170Z,15.10
2018-02-16T15:21:55.670Z,24.93
2018-02-16T15:24:23.154Z,9.60
2018-02-16T15:26:50.702Z,13.63
2018-02-16T15:29:18.166Z,9.90
2018-02-16T15:31:45.632Z,7.13
2018-02-16T15:34:13.121Z,5.57
2018-02-16T15:36:40.588Z,13.20
2018-02-16T15:39:08.070Z,11.50
2018-02-16T15:41:36.312Z,16.93
2018-02-16T15:44:03.779Z,7.20
2018-02-16T15:46:31.281Z,6.83
2018-02-16T15:48:58.758Z,5.53
2018-02-16T15:51:26.237Z,8.93
2018-02-16T15:53:53.714Z,7.60
2018-02-16T15:56:23.614Z,10.23
2018-02-16T15:58:51.083Z,3.70
2018-02-16T16:01:18.549Z,8.57
2018-02-16T16:03:46.008Z,5.40
2018-02-16T16:06:14.253Z,5.47
2018-02-16T16:08:41.705Z,8.13
2018-02-16T16:11:09.179Z,12.03
2018-02-16T16:13:36.632Z,10.80
2018-02-16T16:16:04.106Z,9.13
2018-02-16T16:18:31.739Z,7.47
2018-02-16T16:20:59.219Z,12.97
2018-02-16T16:23:26.700Z,5.80
2018-02-16T16:25:54.158Z,12.17
2018-02-16T16:28:22.279Z,12.30
2018-02-16T16:30:49.742Z,10.00
2018-02-16T16:33:17.207Z,12.63
2018-02-16T16:35:45.599Z,8.63
2018-02-16T16:38:13.085Z,10.23
2018-02-16T16:40:42.664Z,9.73
2018-02-16T16:43:12.674Z,5.40
2018-02-16T16:45:42.317Z,8.20
2018-02-16T16:48:10.096Z,18.10
2018-02-16T16:50:38.572Z,18.77
2018-02-16T16:53:06.114Z,12.77
2018-02-16T16:55:33.663Z,16.20
2018-02-16T16:58:01.882Z,15.83
2018-02-16T17:00:30.132Z,14.70
2018-02-16T17:02:57.590Z,6.53
2018-02-16T17:05:25.070Z,16.27
2018-02-16T17:07:53.319Z,11.23
2018-02-16T17:10:20.776Z,19.10
2018-02-16T17:12:48.250Z,17.67
2018-02-16T17:15:15.721Z,19.30
2018-02-16T17:17:43.962Z,13.00
2018-02-16T17:20:11.452Z,13.70
2018-02-16T17:22:38.945Z,17.13
2018-02-16T17:25:06.432Z,14.87
2018-02-16T17:27:33.896Z,25.73
2018-02-16T17:30:01.389Z,17.93
2018-02-16T17:32:29.622Z,15.23
2018-02-16T17:34:57.082Z,13.43
2018-02-16T17:37:24.567Z,29.13
2018-02-16T17:39:52.801Z,28.27
2018-02-16T17:42:20.278Z,16.13
2018-02-16T17:44:47.734Z,24.00
2018-02-16T17:47:15.226Z,20.83
2018-02-16T17:49:42.713Z,19.70
2018-02-16T17:52:10.254Z,17.90
2018-02-16T17:54:38.524Z,30.33
2018-02-16T17:57:05.994Z,17.70
2018-02-16T17:59:34.261Z,20.67
2018-02-16T18:02:01.759Z,27.13
2018-02-16T18:04:29.269Z,32.63
2018-02-16T18:06:56.752Z,32.70
2018-02-16T18:09:25.123Z,37.77
2018-02-16T18:11:53.389Z,31.13
2018-02-16T18:14:20.871Z,28.70
2018-02-16T18:16:48.354Z,32.73
2018-02-16T18:19:15.858Z,48.60
2018-02-16T18:21:43.339Z,29.17
2018-02-16T18:24:11.585Z,25.93
2018-02-16T18:26:39.042Z,33.50
2018-02-16T18:29:06.604Z,41.53
2018-02-16T18:31:34.071Z,43.03
2018-02-16T18:34:01.562Z,37.27
2018-02-16T18:36:29.074Z,53.13
2018-02-16T18:38:56.548Z,56.10
2018-02-16T18:41:24.020Z,51.47
2018-02-16T18:43:52.265Z,52.73
2018-02-16T18:46:19.737Z,37.93
2018-02-16T18:48:47.202Z,49.67
2018-02-16T18:51:14.714Z,19.10
2018-02-16T18:53:42.219Z,27.13
2018-02-16T18:56:09.694Z,21.43
2018-02-16T18:58:38.024Z,18.47
2018-02-16T19:01:05.531Z,20.27
2018-02-16T19:03:33.789Z,23.23
2018-02-16T19:06:01.251Z,24.47
2018-02-16T19:08:29.532Z,22.33
2018-02-16T19:10:56.996Z,18.70
2018-02-16T19:13:25.338Z,30.53
2018-02-16T19:15:52.806Z,26.30
2018-02-16T19:18:20.336Z,27.63
2018-02-16T19:20:47.802Z,20.87
2018-02-16T19:23:15.270Z,31.20
2018-02-16T19:25:42.923Z,34.70
2018-02-16T19:28:10.406Z,21.10
2018-02-16T19:30:38.207Z,30.33
2018-02-16T19:33:07.273Z,36.20
2018-02-16T19:35:34.969Z,24.50
2018-02-16T19:38:02.657Z,23.20
2018-02-16T19:40:30.518Z,39.97
2018-02-16T19:42:58.386Z,40.60
2018-02-16T19:45:26.058Z,28.90
2018-02-16T19:47:53.918Z,39.67
2018-02-16T19:50:21.888Z,30.17
2018-02-16T19:52:49.787Z,38.60
2018-02-16T19:55:17.260Z,35.57
2018-02-16T19:57:45.016Z,31.80
2018-02-16T20:00:13.052Z,38.63
2018-02-16T20:02:41.022Z,34.10
2018-02-16T20:05:08.585Z,34.30
2018-02-16T20:07:36.653Z,31.30
2018-02-16T20:10:04.621Z,29.40
2018-02-16T20:12:33.617Z,30.70
2018-02-16T20:15:01.138Z,31.40
2018-02-16T20:17:28.646Z,34.83
2018-02-16T20:19:56.911Z,36.27
2018-02-16T20:22:24.964Z,31.20
2018-02-16T20:24:53.571Z,36.80
2018-02-16T20:27:21.433Z,42.10
2018-02-16T20:29:48.945Z,30.30
2018-02-16T20:32:16.868Z,34.13
2018-02-16T20:34:44.731Z,28.20
2018-02-16T20:37:12.242Z,34.87
2018-02-16T20:39:40.057Z,34.70
2018-02-16T20:42:08.509Z,23.50
2018-02-16T20:44:37.122Z,33.83
2018-02-16T20:47:04.709Z,23.07
2018-02-16T20:49:32.190Z,20.90
2018-02-16T20:52:00.445Z,23.93
2018-02-16T20:54:28.807Z,34.03
2018-02-16T20:56:56.298Z,25.70
2018-02-16T20:59:23.816Z,30.07
2018-02-16T21:01:51.305Z,40.20
2018-02-16T21:04:18.793Z,41.70
2018-02-16T21:06:46.615Z,43.03
2018-02-16T21:09:15.681Z,36.20
2018-02-16T21:11:43.213Z,24.93
2018-02-16T21:14:10.724Z,28.37
2018-02-16T21:16:38.733Z,21.90
2018-02-16T21:19:06.194Z,24.43
2018-02-16T21:21:33.722Z,19.03
2018-02-16T21:24:01.226Z,21.40
2018-02-16T21:26:29.462Z,23.60
2018-02-16T21:28:57.177Z,23.87
2018-02-16T21:31:25.552Z,21.30
2018-02-16T21:33:53.009Z,16.00
2018-02-16T21:36:21.266Z,23.83
2018-02-16T21:38:48.745Z,25.87
2018-02-16T21:41:17.069Z,20.33
2018-02-16T21:43:44.614Z,23.80
2018-02-16T21:46:12.078Z,31.87
2018-02-16T21:48:39.575Z,35.40
2018-02-16T21:51:07.046Z,31.57
2018-02-16T21:53:34.561Z,34.93
2018-02-16T21:56:02.423Z,20.97
2018-02-16T21:58:29.906Z,25.00
2018-02-16T22:00:57.375Z,27.80
2018-02-16T22:03:24.923Z,26.50
2018-02-16T22:05:52.544Z,36.10
2018-02-16T22:08:20.015Z,16.20
2018-02-16T22:10:47.501Z,26.67
2018-02-16T22:13:15.070Z,16.10
2018-02-16T22:15:42.563Z,15.23
2018-02-16T22:18:11.322Z,26.90
2018-02-16T22:20:38.821Z,28.77
2018-02-16T22:23:07.304Z,18.83
2018-02-16T22:25:34.772Z,26.13
2018-02-16T22:28:02.243Z,21.90
2018-02-16T22:30:29.733Z,15.53
2018-02-16T22:32:57.216Z,12.50
2018-02-16T22:35:25.467Z,28.10
2018-02-16T22:37:52.932Z,24.63
2018-02-16T22:40:20.410Z,20.53
2018-02-16T22:42:48.682Z,18.43
2018-02-16T22:45:16.182Z,28.07
2018-02-16T22:47:43.661Z,24.00
2018-02-16T22:50:11.367Z,22.90
2018-02-16T22:52:38.873Z,33.00
2018-02-16T22:55:06.401Z,47.90
2018-02-16T22:57:35.905Z,42.70
2018-02-16T23:00:05.659Z,24.47
2018-02-16T23:02:33.320Z,33.57
2018-02-16T23:05:00.828Z,36.13
2018-02-16T23:07:29.083Z,28.00
2018-02-16T23:09:57.574Z,23.87
2018-02-16T23:12:25.075Z,37.53
2018-02-16T23:14:52.541Z,37.23
2018-02-16T23:17:20.029Z,21.43
2018-02-16T23:19:47.520Z,39.27
2018-02-16T23:22:15.762Z,30.57
2018-02-16T23:24:43.269Z,27.73
2018-02-16T23:27:11.716Z,27.93
2018-02-16T23:29:39.285Z,32.77
2018-02-16T23:32:07.030Z,38.33
2018-02-16T23:34:34.540Z,39.40
2018-02-16T23:37:02.014Z,25.97
2018-02-16T23:39:29.501Z,28.57
2018-02-16T23:41:56.981Z,28.50
2018-02-16T23:44:24.420Z,32.30
2018-02-16T23:46:51.922Z,34.37
2018-02-16T23:49:19.532Z,29.97
2018-02-16T23:51:47.002Z,29.97
2018-02-16T23:54:14.495Z,26.40
2018-02-16T23:56:41.970Z,28.63
2018-02-16T23:59:09.462Z,32.43
